sensor_id;sensor_type;location;lat;lon;timestamp;pressure;altitude;pressure_sealevel;temperature;humidity
25610;BME280;13479;49.044;8.716;2022-07-29T04:17:07;98810.50;;;20.57;68.57
25610;BME280;13479;49.044;8.716;2022-07-29T04:19:32;98811.31;;;20.57;68.53
25610;BME280;13479;49.044;8.716;2022-07-29T04:21:58;98800.34;;;20.52;68.95
25610;BME280;13479;49.044;8.716;2022-07-29T04:24:24;98804.72;;;20.60;68.83
25610;BME280;13479;49.044;8.716;2022-07-29T04:26:50;98814.28;;;20.69;68.46
25610;BME280;13479;49.044;8.716;2022-07-29T04:29:15;98810.19;;;20.93;67.44
25610;BME280;13479;49.044;8.716;2022-07-29T04:31:41;98799.44;;;21.00;66.76
25610;BME280;13479;49.044;8.716;2022-07-29T04:34:07;98789.03;;;20.97;66.97
25610;BME280;13479;49.044;8.716;2022-07-29T04:36:33;98797.78;;;21.19;66.03
25610;BME280;13479;49.044;8.716;2022-07-29T04:38:58;98782.19;;;21.28;65.78
25610;BME280;13479;49.044;8.716;2022-07-29T04:41:23;98782.81;;;21.23;65.89
25610;BME280;13479;49.044;8.716;2022-07-29T04:43:49;98784.69;;;21.43;64.99
25610;BME280;13479;49.044;8.716;2022-07-29T04:46:14;98777.00;;;21.47;64.88
25610;BME280;13479;49.044;8.716;2022-07-29T04:48:39;98771.59;;;21.47;65.05
25610;BME280;13479;49.044;8.716;2022-07-29T04:51:05;98786.75;;;21.54;64.83
25610;BME280;13479;49.044;8.716;2022-07-29T04:53:30;98791.34;;;21.67;64.13
25610;BME280;13479;49.044;8.716;2022-07-29T04:55:55;98787.38;;;21.70;63.85
25610;BME280;13479;49.044;8.716;2022-07-29T04:58:20;98784.28;;;21.66;63.83
25610;BME280;13479;49.044;8.716;2022-07-29T05:00:48;98774.09;;;21.62;64.25
25610;BME280;13479;49.044;8.716;2022-07-29T05:03:13;98765.78;;;21.70;64.08
25610;BME280;13479;49.044;8.716;2022-07-29T05:05:38;98765.19;;;21.61;64.37
25610;BME280;13479;49.044;8.716;2022-07-29T05:08:04;98770.34;;;21.69;64.53
25610;BME280;13479;49.044;8.716;2022-07-29T05:10:29;98798.56;;;21.94;63.62
25610;BME280;13479;49.044;8.716;2022-07-29T05:12:55;98790.44;;;21.94;63.55
25610;BME280;13479;49.044;8.716;2022-07-29T05:15:20;98787.34;;;21.90;64.06
25610;BME280;13479;49.044;8.716;2022-07-29T05:17:45;98768.00;;;22.00;64.15
25610;BME280;13479;49.044;8.716;2022-07-29T05:20:11;98803.03;;;22.27;62.83
25610;BME280;13479;49.044;8.716;2022-07-29T05:22:36;98792.56;;;22.37;62.91
25610;BME280;13479;49.044;8.716;2022-07-29T05:25:02;98801.22;;;22.66;62.35
25610;BME280;13479;49.044;8.716;2022-07-29T05:27:27;98793.34;;;22.96;61.02
25610;BME280;13479;49.044;8.716;2022-07-29T05:29:52;98794.38;;;23.97;57.98
25610;BME280;13479;49.044;8.716;2022-07-29T05:32:18;98784.16;;;25.21;54.32
25610;BME280;13479;49.044;8.716;2022-07-29T05:34:43;98784.81;;;26.64;50.84
25610;BME280;13479;49.044;8.716;2022-07-29T05:37:08;98793.47;;;27.92;46.75
25610;BME280;13479;49.044;8.716;2022-07-29T05:39:34;98813.34;;;29.04;43.51
25610;BME280;13479;49.044;8.716;2022-07-29T05:41:59;98836.09;;;30.23;40.54
25610;BME280;13479;49.044;8.716;2022-07-29T05:44:24;98844.94;;;31.30;39.45
25610;BME280;13479;49.044;8.716;2022-07-29T05:46:49;98864.28;;;32.26;37.33
25610;BME280;13479;49.044;8.716;2022-07-29T05:49:15;98873.41;;;32.87;35.82
25610;BME280;13479;49.044;8.716;2022-07-29T05:51:40;98888.75;;;32.93;34.15
25610;BME280;13479;49.044;8.716;2022-07-29T05:54:05;98899.19;;;33.41;35.16
25610;BME280;13479;49.044;8.716;2022-07-29T05:56:31;98890.28;;;33.84;33.32
25610;BME280;13479;49.044;8.716;2022-07-29T05:58:56;98905.19;;;34.37;33.34
25610;BME280;13479;49.044;8.716;2022-07-29T06:01:21;98909.16;;;35.18;31.41
25610;BME280;13479;49.044;8.716;2022-07-29T06:03:46;98917.22;;;35.66;30.18
25610;BME280;13479;49.044;8.716;2022-07-29T06:06:12;98925.78;;;35.32;30.34
25610;BME280;13479;49.044;8.716;2022-07-29T06:08:37;98925.84;;;35.07;30.26
25610;BME280;13479;49.044;8.716;2022-07-29T06:11:04;98935.38;;;35.34;30.48
25610;BME280;13479;49.044;8.716;2022-07-29T06:13:30;98943.16;;;35.84;29.50
25610;BME280;13479;49.044;8.716;2022-07-29T06:15:55;98945.91;;;36.31;28.69
25610;BME280;13479;49.044;8.716;2022-07-29T06:18:20;98948.19;;;36.29;29.17
25610;BME280;13479;49.044;8.716;2022-07-29T06:20:51;98952.84;;;36.76;28.38
25610;BME280;13479;49.044;8.716;2022-07-29T06:23:18;98954.47;;;37.42;27.36
25610;BME280;13479;49.044;8.716;2022-07-29T06:25:43;98971.47;;;37.49;27.23
25610;BME280;13479;49.044;8.716;2022-07-29T06:28:08;98977.09;;;37.07;27.42
25610;BME280;13479;49.044;8.716;2022-07-29T06:30:34;98963.22;;;35.90;28.17
25610;BME280;13479;49.044;8.716;2022-07-29T06:33:00;98956.38;;;35.54;28.96
25610;BME280;13479;49.044;8.716;2022-07-29T06:35:26;98933.00;;;35.47;28.32
25610;BME280;13479;49.044;8.716;2022-07-29T06:37:52;98942.25;;;35.56;28.31
25610;BME280;13479;49.044;8.716;2022-07-29T06:40:17;98943.66;;;35.15;28.83
25610;BME280;13479;49.044;8.716;2022-07-29T06:43:01;98931.03;;;34.17;29.92
25610;BME280;13479;49.044;8.716;2022-07-29T06:45:26;98924.84;;;33.26;30.94
25610;BME280;13479;49.044;8.716;2022-07-29T06:47:51;98918.31;;;32.57;32.04
25610;BME280;13479;49.044;8.716;2022-07-29T06:50:17;98913.78;;;32.00;32.80
25610;BME280;13479;49.044;8.716;2022-07-29T06:52:42;98906.09;;;31.46;33.67
25610;BME280;13479;49.044;8.716;2022-07-29T06:55:08;98901.66;;;31.19;34.25
25610;BME280;13479;49.044;8.716;2022-07-29T06:57:33;98898.28;;;30.96;34.73
25610;BME280;13479;49.044;8.716;2022-07-29T06:59:58;98882.66;;;30.96;35.46
25610;BME280;13479;49.044;8.716;2022-07-29T07:02:24;98878.91;;;31.23;34.29
25610;BME280;13479;49.044;8.716;2022-07-29T07:04:49;98880.28;;;31.31;33.91
25610;BME280;13479;49.044;8.716;2022-07-29T07:07:14;98888.78;;;31.35;34.06
25610;BME280;13479;49.044;8.716;2022-07-29T07:09:40;98883.03;;;31.93;33.28
25610;BME280;13479;49.044;8.716;2022-07-29T07:12:05;98903.16;;;32.64;32.56
25610;BME280;13479;49.044;8.716;2022-07-29T07:14:31;98906.47;;;34.21;30.13
25610;BME280;13479;49.044;8.716;2022-07-29T07:16:56;98921.41;;;36.44;26.98
25610;BME280;13479;49.044;8.716;2022-07-29T07:19:21;98938.44;;;37.75;25.05
25610;BME280;13479;49.044;8.716;2022-07-29T07:21:47;98959.69;;;38.92;23.94
25610;BME280;13479;49.044;8.716;2022-07-29T07:24:12;98972.78;;;40.53;22.07
25610;BME280;13479;49.044;8.716;2022-07-29T07:26:37;98997.84;;;41.98;20.24
25610;BME280;13479;49.044;8.716;2022-07-29T07:29:04;99001.94;;;42.59;19.45
25610;BME280;13479;49.044;8.716;2022-07-29T07:31:30;99013.47;;;42.11;19.34
25610;BME280;13479;49.044;8.716;2022-07-29T07:33:55;99020.91;;;41.86;19.62
25610;BME280;13479;49.044;8.716;2022-07-29T07:36:21;99006.22;;;41.98;19.51
25610;BME280;13479;49.044;8.716;2022-07-29T07:38:46;99015.31;;;40.63;20.64
25610;BME280;13479;49.044;8.716;2022-07-29T07:41:11;99006.66;;;39.29;21.64
25610;BME280;13479;49.044;8.716;2022-07-29T07:43:37;99008.19;;;38.31;22.94
25610;BME280;13479;49.044;8.716;2022-07-29T07:46:02;98994.69;;;37.62;23.64
25610;BME280;13479;49.044;8.716;2022-07-29T07:48:28;98985.63;;;37.33;23.90
25610;BME280;13479;49.044;8.716;2022-07-29T07:50:53;98974.41;;;36.60;24.78
25610;BME280;13479;49.044;8.716;2022-07-29T07:53:18;98972.16;;;35.68;25.71
25610;BME280;13479;49.044;8.716;2022-07-29T07:55:44;98964.53;;;34.78;26.92
25610;BME280;13479;49.044;8.716;2022-07-29T07:58:09;98962.78;;;34.09;27.66
25610;BME280;13479;49.044;8.716;2022-07-29T08:00:35;98953.28;;;34.21;27.97
25610;BME280;13479;49.044;8.716;2022-07-29T08:03:01;98936.22;;;35.16;26.99
25610;BME280;13479;49.044;8.716;2022-07-29T08:05:26;98935.19;;;36.16;25.83
25610;BME280;13479;49.044;8.716;2022-07-29T08:07:51;98944.03;;;37.24;24.36
25610;BME280;13479;49.044;8.716;2022-07-29T08:10:18;98950.66;;;37.97;23.55
25610;BME280;13479;49.044;8.716;2022-07-29T08:13:05;98962.91;;;38.76;22.71
25610;BME280;13479;49.044;8.716;2022-07-29T08:15:31;98968.56;;;39.82;21.39
25610;BME280;13479;49.044;8.716;2022-07-29T08:17:57;98978.97;;;40.20;20.93
25610;BME280;13479;49.044;8.716;2022-07-29T08:20:22;98983.53;;;40.25;21.13
25610;BME280;13479;49.044;8.716;2022-07-29T08:22:47;99004.50;;;39.69;21.68
25610;BME280;13479;49.044;8.716;2022-07-29T08:25:12;98998.63;;;39.62;21.76
25610;BME280;13479;49.044;8.716;2022-07-29T08:27:38;99000.88;;;39.25;22.01
25610;BME280;13479;49.044;8.716;2022-07-29T08:30:03;99002.25;;;38.38;22.74
25610;BME280;13479;49.044;8.716;2022-07-29T08:32:29;99003.19;;;37.65;23.89
25610;BME280;13479;49.044;8.716;2022-07-29T08:34:56;98980.34;;;37.82;23.79
25610;BME280;13479;49.044;8.716;2022-07-29T08:37:21;98973.50;;;38.03;23.67
25610;BME280;13479;49.044;8.716;2022-07-29T08:39:46;98968.22;;;38.24;23.64
25610;BME280;13479;49.044;8.716;2022-07-29T08:42:12;98966.53;;;38.37;23.25
25610;BME280;13479;49.044;8.716;2022-07-29T08:44:37;98970.50;;;38.22;23.61
25610;BME280;13479;49.044;8.716;2022-07-29T08:47:03;98969.41;;;38.31;23.34
25610;BME280;13479;49.044;8.716;2022-07-29T08:49:28;98970.84;;;39.10;22.88
25610;BME280;13479;49.044;8.716;2022-07-29T08:51:54;98981.47;;;39.69;22.52
25610;BME280;13479;49.044;8.716;2022-07-29T08:54:22;98997.19;;;39.82;22.08
25610;BME280;13479;49.044;8.716;2022-07-29T08:56:50;98998.06;;;40.78;21.20
25610;BME280;13479;49.044;8.716;2022-07-29T08:59:19;99002.94;;;41.62;20.21
25610;BME280;13479;49.044;8.716;2022-07-29T09:01:46;99007.97;;;42.61;19.17
25610;BME280;13479;49.044;8.716;2022-07-29T09:04:13;99018.00;;;43.93;18.22
25610;BME280;13479;49.044;8.716;2022-07-29T09:06:43;99023.13;;;44.68;17.49
25610;BME280;13479;49.044;8.716;2022-07-29T09:09:09;99038.50;;;45.61;16.51
25610;BME280;13479;49.044;8.716;2022-07-29T09:11:35;99037.88;;;46.54;15.53
25610;BME280;13479;49.044;8.716;2022-07-29T09:14:00;99026.47;;;46.00;15.81
25610;BME280;13479;49.044;8.716;2022-07-29T09:16:25;99037.13;;;44.68;16.52
25610;BME280;13479;49.044;8.716;2022-07-29T09:18:51;99029.16;;;42.99;18.00
25610;BME280;13479;49.044;8.716;2022-07-29T09:21:17;99026.50;;;41.65;19.53
25610;BME280;13479;49.044;8.716;2022-07-29T09:24:08;99007.84;;;40.84;20.20
25610;BME280;13479;49.044;8.716;2022-07-29T09:26:40;98999.19;;;40.86;20.00
25610;BME280;13479;49.044;8.716;2022-07-29T09:29:08;98982.78;;;41.35;19.44
25610;BME280;13479;49.044;8.716;2022-07-29T09:31:37;98983.13;;;42.81;18.33
25610;BME280;13479;49.044;8.716;2022-07-29T09:34:04;98992.28;;;43.59;17.78
25610;BME280;13479;49.044;8.716;2022-07-29T09:36:29;98992.44;;;44.55;16.94
25610;BME280;13479;49.044;8.716;2022-07-29T09:39:02;99007.72;;;45.26;16.00
25610;BME280;13479;49.044;8.716;2022-07-29T09:41:28;99004.63;;;45.70;15.28
25610;BME280;13479;49.044;8.716;2022-07-29T09:43:58;99015.28;;;45.61;15.50
25610;BME280;13479;49.044;8.716;2022-07-29T09:46:24;99012.31;;;45.73;14.91
25610;BME280;13479;49.044;8.716;2022-07-29T09:49:09;99004.91;;;46.04;14.72
25610;BME280;13479;49.044;8.716;2022-07-29T09:51:35;99009.94;;;46.18;14.75
25610;BME280;13479;49.044;8.716;2022-07-29T09:54:00;99021.38;;;46.29;14.62
25610;BME280;13479;49.044;8.716;2022-07-29T09:56:39;99017.06;;;46.35;14.41
25610;BME280;13479;49.044;8.716;2022-07-29T09:59:05;99014.38;;;46.39;14.48
25610;BME280;13479;49.044;8.716;2022-07-29T10:01:31;99014.03;;;46.21;14.51
25610;BME280;13479;49.044;8.716;2022-07-29T10:03:57;99007.41;;;46.09;14.42
25610;BME280;13479;49.044;8.716;2022-07-29T10:06:22;99009.78;;;45.88;14.86
25610;BME280;13479;49.044;8.716;2022-07-29T10:08:48;99007.81;;;45.13;15.09
25610;BME280;13479;49.044;8.716;2022-07-29T10:11:18;98999.66;;;44.24;15.82
25610;BME280;13479;49.044;8.716;2022-07-29T10:13:46;98995.28;;;43.66;16.58
25610;BME280;13479;49.044;8.716;2022-07-29T10:16:12;98985.66;;;42.86;17.28
25610;BME280;13479;49.044;8.716;2022-07-29T10:18:39;98971.25;;;42.47;17.51
25610;BME280;13479;49.044;8.716;2022-07-29T10:21:04;98951.56;;;41.84;18.09
25610;BME280;13479;49.044;8.716;2022-07-29T10:23:30;98957.53;;;41.19;18.29
25610;BME280;13479;49.044;8.716;2022-07-29T10:25:56;98952.28;;;41.39;18.79
25610;BME280;13479;49.044;8.716;2022-07-29T10:28:21;98943.63;;;41.74;18.00
25610;BME280;13479;49.044;8.716;2022-07-29T10:30:49;98948.25;;;41.91;18.00
25610;BME280;13479;49.044;8.716;2022-07-29T10:41:52;98929.13;;;40.84;18.65
25610;BME280;13479;49.044;8.716;2022-07-29T10:44:22;98936.47;;;40.11;19.57
25610;BME280;13479;49.044;8.716;2022-07-29T10:46:48;98919.53;;;39.86;19.69
25610;BME280;13479;49.044;8.716;2022-07-29T10:49:16;98915.63;;;39.87;19.60
25610;BME280;13479;49.044;8.716;2022-07-29T10:51:54;98910.75;;;39.66;20.23
25610;BME280;13479;49.044;8.716;2022-07-29T10:57:22;98906.78;;;39.85;19.78
25610;BME280;13479;49.044;8.716;2022-07-29T11:05:15;98910.44;;;39.15;20.04
25610;BME280;13479;49.044;8.716;2022-07-29T11:10:39;98910.44;;;39.42;19.71
25610;BME280;13479;49.044;8.716;2022-07-29T11:13:05;98903.06;;;39.54;20.01
25610;BME280;13479;49.044;8.716;2022-07-29T11:15:57;98904.66;;;39.82;20.11
25610;BME280;13479;49.044;8.716;2022-07-29T11:18:22;98901.94;;;39.56;20.17
25610;BME280;13479;49.044;8.716;2022-07-29T11:20:49;98889.66;;;39.57;20.43
25610;BME280;13479;49.044;8.716;2022-07-29T11:23:29;98892.31;;;39.44;20.06
25610;BME280;13479;49.044;8.716;2022-07-29T11:26:17;98896.13;;;38.55;21.19
25610;BME280;13479;49.044;8.716;2022-07-29T11:31:17;98884.47;;;36.90;23.00
25610;BME280;13479;49.044;8.716;2022-07-29T11:33:45;98885.97;;;36.18;23.57
25610;BME280;13479;49.044;8.716;2022-07-29T11:36:12;98875.81;;;35.66;23.98
25610;BME280;13479;49.044;8.716;2022-07-29T11:38:38;98875.81;;;35.14;24.81
25610;BME280;13479;49.044;8.716;2022-07-29T11:41:21;98870.84;;;34.54;25.50
25610;BME280;13479;49.044;8.716;2022-07-29T11:43:51;98873.66;;;34.00;26.28
25610;BME280;13479;49.044;8.716;2022-07-29T11:46:50;98861.81;;;33.70;26.25
25610;BME280;13479;49.044;8.716;2022-07-29T11:49:24;98857.94;;;33.71;26.62
25610;BME280;13479;49.044;8.716;2022-07-29T11:51:54;98860.69;;;33.71;27.13
25610;BME280;13479;49.044;8.716;2022-07-29T11:54:31;98845.69;;;33.87;26.40
25610;BME280;13479;49.044;8.716;2022-07-29T11:56:58;98837.69;;;34.15;26.07
25610;BME280;13479;49.044;8.716;2022-07-29T11:59:24;98845.94;;;34.15;25.76
25610;BME280;13479;49.044;8.716;2022-07-29T12:01:56;98842.88;;;34.41;24.99
25610;BME280;13479;49.044;8.716;2022-07-29T12:04:22;98846.50;;;34.61;24.69
25610;BME280;13479;49.044;8.716;2022-07-29T12:06:52;98844.59;;;35.00;25.06
25610;BME280;13479;49.044;8.716;2022-07-29T12:09:19;98857.38;;;35.48;24.65
25610;BME280;13479;49.044;8.716;2022-07-29T12:11:45;98861.16;;;35.85;23.60
25610;BME280;13479;49.044;8.716;2022-07-29T12:14:31;98871.00;;;36.05;23.58
25610;BME280;13479;49.044;8.716;2022-07-29T12:16:57;98867.75;;;36.17;23.40
25610;BME280;13479;49.044;8.716;2022-07-29T12:19:23;98873.28;;;36.17;23.18
25610;BME280;13479;49.044;8.716;2022-07-29T12:21:51;98874.19;;;36.12;22.97
25610;BME280;13479;49.044;8.716;2022-07-29T12:24:17;98889.00;;;36.16;23.40
25610;BME280;13479;49.044;8.716;2022-07-29T12:26:55;98883.59;;;35.97;23.33
25610;BME280;13479;49.044;8.716;2022-07-29T12:29:21;98886.91;;;35.80;23.87
25610;BME280;13479;49.044;8.716;2022-07-29T12:31:51;98879.75;;;35.79;24.77
25610;BME280;13479;49.044;8.716;2022-07-29T12:34:20;98873.41;;;35.79;23.92
25610;BME280;13479;49.044;8.716;2022-07-29T12:36:46;98865.22;;;35.74;24.61
25610;BME280;13479;49.044;8.716;2022-07-29T12:39:11;98868.06;;;35.68;24.05
25610;BME280;13479;49.044;8.716;2022-07-29T12:41:37;98866.41;;;35.53;24.89
25610;BME280;13479;49.044;8.716;2022-07-29T12:44:02;98863.50;;;35.45;24.40
25610;BME280;13479;49.044;8.716;2022-07-29T12:46:28;98857.53;;;35.37;24.14
25610;BME280;13479;49.044;8.716;2022-07-29T12:48:54;98852.59;;;35.34;25.01
25610;BME280;13479;49.044;8.716;2022-07-29T12:51:36;98856.47;;;35.33;24.82
25610;BME280;13479;49.044;8.716;2022-07-29T12:54:13;98849.53;;;35.36;24.79
25610;BME280;13479;49.044;8.716;2022-07-29T12:56:40;98846.13;;;35.44;24.60
25610;BME280;13479;49.044;8.716;2022-07-29T12:59:17;98852.72;;;35.62;24.47
25610;BME280;13479;49.044;8.716;2022-07-29T13:01:44;98854.19;;;35.74;24.20
25610;BME280;13479;49.044;8.716;2022-07-29T13:04:24;98856.94;;;35.74;24.42
25610;BME280;13479;49.044;8.716;2022-07-29T13:06:59;98856.59;;;35.61;24.61
25610;BME280;13479;49.044;8.716;2022-07-29T13:09:39;98867.03;;;35.64;24.26
25610;BME280;13479;49.044;8.716;2022-07-29T13:12:08;98870.81;;;35.68;24.55
25610;BME280;13479;49.044;8.716;2022-07-29T13:14:36;98869.00;;;35.45;24.20
25610;BME280;13479;49.044;8.716;2022-07-29T13:17:13;98867.91;;;35.26;25.11
25610;BME280;13479;49.044;8.716;2022-07-29T13:19:44;98866.50;;;35.29;24.97
25610;BME280;13479;49.044;8.716;2022-07-29T13:22:14;98877.75;;;35.33;24.64
25610;BME280;13479;49.044;8.716;2022-07-29T13:24:48;98870.78;;;35.35;24.38
25610;BME280;13479;49.044;8.716;2022-07-29T13:27:15;98878.41;;;35.24;24.59
25610;BME280;13479;49.044;8.716;2022-07-29T13:29:41;98873.56;;;35.16;25.39
25610;BME280;13479;49.044;8.716;2022-07-29T13:32:06;98870.00;;;34.97;25.71
25610;BME280;13479;49.044;8.716;2022-07-29T13:34:32;98874.69;;;34.96;25.26
25610;BME280;13479;49.044;8.716;2022-07-29T13:36:57;98870.91;;;34.92;24.84
25610;BME280;13479;49.044;8.716;2022-07-29T13:39:23;98874.63;;;35.01;24.67
25610;BME280;13479;49.044;8.716;2022-07-29T13:41:48;98866.34;;;35.01;24.55
25610;BME280;13479;49.044;8.716;2022-07-29T13:44:13;98878.06;;;34.93;24.38
25610;BME280;13479;49.044;8.716;2022-07-29T13:46:39;98880.56;;;34.89;23.91
25610;BME280;13479;49.044;8.716;2022-07-29T13:49:04;98880.31;;;34.86;23.61
25610;BME280;13479;49.044;8.716;2022-07-29T13:51:30;98883.28;;;34.94;23.52
25610;BME280;13479;49.044;8.716;2022-07-29T13:53:55;98880.28;;;34.91;23.63
25610;BME280;13479;49.044;8.716;2022-07-29T13:56:21;98886.50;;;34.77;23.59
25610;BME280;13479;49.044;8.716;2022-07-29T13:58:46;98876.91;;;34.75;23.86
25610;BME280;13479;49.044;8.716;2022-07-29T14:01:11;98883.84;;;34.72;23.20
25610;BME280;13479;49.044;8.716;2022-07-29T14:03:37;98881.81;;;34.59;23.76
25610;BME280;13479;49.044;8.716;2022-07-29T14:06:06;98875.59;;;34.48;23.61
25610;BME280;13479;49.044;8.716;2022-07-29T14:08:31;98868.53;;;34.37;23.90
25610;BME280;13479;49.044;8.716;2022-07-29T14:10:56;98878.34;;;34.24;23.32
25610;BME280;13479;49.044;8.716;2022-07-29T14:13:22;98879.44;;;33.98;23.75
25610;BME280;13479;49.044;8.716;2022-07-29T14:15:47;98870.50;;;33.82;24.39
25610;BME280;13479;49.044;8.716;2022-07-29T14:18:12;98862.28;;;33.77;24.09
25610;BME280;13479;49.044;8.716;2022-07-29T14:20:38;98874.16;;;33.72;23.76
25610;BME280;13479;49.044;8.716;2022-07-29T14:23:03;98866.72;;;33.73;25.38
25610;BME280;13479;49.044;8.716;2022-07-29T14:25:28;98855.88;;;33.57;24.46
25610;BME280;13479;49.044;8.716;2022-07-29T14:27:53;98852.28;;;33.57;24.68
25610;BME280;13479;49.044;8.716;2022-07-29T14:30:19;98862.31;;;33.42;23.81
25610;BME280;13479;49.044;8.716;2022-07-29T14:32:44;98858.25;;;33.35;24.01
25610;BME280;13479;49.044;8.716;2022-07-29T14:35:10;98870.59;;;33.37;24.03
25610;BME280;13479;49.044;8.716;2022-07-29T14:37:35;98872.00;;;33.35;23.92
25610;BME280;13479;49.044;8.716;2022-07-29T14:40:02;98870.91;;;33.31;23.91
25610;BME280;13479;49.044;8.716;2022-07-29T14:42:29;98873.72;;;33.20;23.84
25610;BME280;13479;49.044;8.716;2022-07-29T14:44:56;98871.72;;;32.91;23.70
25610;BME280;13479;49.044;8.716;2022-07-29T14:47:21;98859.09;;;32.85;24.20
25610;BME280;13479;49.044;8.716;2022-07-29T14:49:47;98856.91;;;32.87;24.65
25610;BME280;13479;49.044;8.716;2022-07-29T14:52:12;98861.91;;;32.80;24.56
25610;BME280;13479;49.044;8.716;2022-07-29T14:54:37;98858.59;;;32.73;25.04
25610;BME280;13479;49.044;8.716;2022-07-29T14:57:03;98853.44;;;32.61;24.79
25610;BME280;13479;49.044;8.716;2022-07-29T14:59:28;98857.09;;;32.46;24.70
25610;BME280;13479;49.044;8.716;2022-07-29T15:01:53;98860.69;;;32.41;25.17
25610;BME280;13479;49.044;8.716;2022-07-29T15:04:19;98840.03;;;32.49;25.61
25610;BME280;13479;49.044;8.716;2022-07-29T15:06:44;98840.03;;;32.49;25.43
25610;BME280;13479;49.044;8.716;2022-07-29T15:09:09;98836.19;;;32.50;25.42
25610;BME280;13479;49.044;8.716;2022-07-29T15:11:34;98850.50;;;32.42;25.17
25610;BME280;13479;49.044;8.716;2022-07-29T15:14:00;98853.56;;;32.35;25.19
25610;BME280;13479;49.044;8.716;2022-07-29T15:16:25;98852.75;;;32.29;25.29
25610;BME280;13479;49.044;8.716;2022-07-29T15:18:50;98851.66;;;32.36;25.40
25610;BME280;13479;49.044;8.716;2022-07-29T15:21:15;98851.06;;;32.39;25.11
25610;BME280;13479;49.044;8.716;2022-07-29T15:23:41;98845.31;;;32.40;25.10
25610;BME280;13479;49.044;8.716;2022-07-29T15:26:06;98858.25;;;32.34;24.70
25610;BME280;13479;49.044;8.716;2022-07-29T15:28:31;98858.81;;;32.26;24.76
25610;BME280;13479;49.044;8.716;2022-07-29T15:30:56;98857.75;;;32.12;25.06
25610;BME280;13479;49.044;8.716;2022-07-29T15:33:22;98862.69;;;32.10;24.67
25610;BME280;13479;49.044;8.716;2022-07-29T15:35:47;98858.56;;;32.02;24.92
25610;BME280;13479;49.044;8.716;2022-07-29T15:38:12;98861.03;;;32.03;24.90
25610;BME280;13479;49.044;8.716;2022-07-29T15:40:38;98869.28;;;31.98;25.10
25610;BME280;13479;49.044;8.716;2022-07-29T15:43:06;98859.97;;;31.99;24.86
25610;BME280;13479;49.044;8.716;2022-07-29T15:45:38;98869.28;;;31.98;25.05
25610;BME280;13479;49.044;8.716;2022-07-29T15:48:05;98878.13;;;31.80;25.14
25610;BME280;13479;49.044;8.716;2022-07-29T15:50:31;98859.75;;;31.75;25.29
25610;BME280;13479;49.044;8.716;2022-07-29T15:52:56;98857.81;;;31.70;25.36
25610;BME280;13479;49.044;8.716;2022-07-29T15:55:22;98873.44;;;31.85;25.01
25610;BME280;13479;49.044;8.716;2022-07-29T15:57:48;98860.53;;;31.86;24.73
25610;BME280;13479;49.044;8.716;2022-07-29T16:00:13;98870.13;;;31.88;24.80
25610;BME280;13479;49.044;8.716;2022-07-29T16:02:41;98867.69;;;31.77;24.55
25610;BME280;13479;49.044;8.716;2022-07-29T16:05:06;98864.09;;;31.76;24.01
25610;BME280;13479;49.044;8.716;2022-07-29T16:07:31;98872.34;;;31.61;24.15
25610;BME280;13479;49.044;8.716;2022-07-29T16:09:57;98866.03;;;31.55;24.27
25610;BME280;13479;49.044;8.716;2022-07-29T16:12:22;98871.53;;;31.45;24.10
25610;BME280;13479;49.044;8.716;2022-07-29T16:14:47;98874.25;;;31.45;24.03
25610;BME280;13479;49.044;8.716;2022-07-29T16:17:14;98868.75;;;31.39;23.93
25610;BME280;13479;49.044;8.716;2022-07-29T16:19:40;98864.94;;;31.35;24.07
25610;BME280;13479;49.044;8.716;2022-07-29T16:22:05;98860.00;;;31.32;24.06
25610;BME280;13479;49.044;8.716;2022-07-29T16:24:30;98859.97;;;31.27;24.59
25610;BME280;13479;49.044;8.716;2022-07-29T16:26:57;98866.03;;;31.29;24.04
25610;BME280;13479;49.044;8.716;2022-07-29T16:29:22;98867.66;;;31.25;24.37
25610;BME280;13479;49.044;8.716;2022-07-29T16:31:47;98856.97;;;31.29;24.32
25610;BME280;13479;49.044;8.716;2022-07-29T16:34:13;98856.16;;;31.33;24.67
25610;BME280;13479;49.044;8.716;2022-07-29T16:36:38;98846.81;;;31.29;24.37
25610;BME280;13479;49.044;8.716;2022-07-29T16:39:03;98850.13;;;31.21;24.74
25610;BME280;13479;49.044;8.716;2022-07-29T16:41:29;98852.84;;;31.16;24.47
25610;BME280;13479;49.044;8.716;2022-07-29T16:43:55;98852.81;;;31.05;24.67
25610;BME280;13479;49.044;8.716;2022-07-29T16:46:20;98841.84;;;31.05;24.13
25610;BME280;13479;49.044;8.716;2022-07-29T16:48:46;98849.78;;;30.91;24.42
25610;BME280;13479;49.044;8.716;2022-07-29T16:51:11;98850.84;;;30.80;24.27
25610;BME280;13479;49.044;8.716;2022-07-29T16:53:37;98856.56;;;30.73;24.54
25610;BME280;13479;49.044;8.716;2022-07-29T16:56:02;98861.22;;;30.62;24.70
25610;BME280;13479;49.044;8.716;2022-07-29T16:58:27;98848.34;;;30.63;24.43
25610;BME280;13479;49.044;8.716;2022-07-29T17:00:53;98854.63;;;30.63;24.19
25610;BME280;13479;49.044;8.716;2022-07-29T17:03:18;98855.47;;;30.64;24.68
25610;BME280;13479;49.044;8.716;2022-07-29T17:05:44;98856.00;;;30.56;24.75
25610;BME280;13479;49.044;8.716;2022-07-29T17:08:09;98852.19;;;30.67;24.91
25610;BME280;13479;49.044;8.716;2022-07-29T17:10:34;98858.19;;;30.64;24.25
25610;BME280;13479;49.044;8.716;2022-07-29T17:12:59;98851.31;;;30.56;24.33
25610;BME280;13479;49.044;8.716;2022-07-29T17:15:25;98847.09;;;30.38;25.09
25610;BME280;13479;49.044;8.716;2022-07-29T17:17:50;98853.13;;;30.35;25.03
25610;BME280;13479;49.044;8.716;2022-07-29T17:20:15;98844.31;;;30.28;25.03
25610;BME280;13479;49.044;8.716;2022-07-29T17:22:41;98839.41;;;30.30;25.57
25610;BME280;13479;49.044;8.716;2022-07-29T17:25:07;98833.41;;;30.33;25.60
25610;BME280;13479;49.044;8.716;2022-07-29T17:27:34;98832.28;;;30.29;25.61
25610;BME280;13479;49.044;8.716;2022-07-29T17:30:00;98831.47;;;30.28;25.91
25610;BME280;13479;49.044;8.716;2022-07-29T17:32:25;98829.28;;;30.30;25.76
25610;BME280;13479;49.044;8.716;2022-07-29T17:34:51;98827.09;;;30.27;25.23
25610;BME280;13479;49.044;8.716;2022-07-29T17:37:16;98831.44;;;30.23;26.05